createdAt,value
2023-12-22T00:00:38.484Z,5.46
2023-12-22T00:01:38.443Z,5.46
2023-12-22T00:02:38.417Z,5.42
2023-12-22T00:03:38.479Z,5.43
2023-12-22T00:04:38.484Z,5.40
2023-12-22T00:05:38.435Z,5.42
2023-12-22T00:06:38.385Z,5.40
2023-12-22T00:07:38.533Z,5.40
2023-12-22T00:08:38.362Z,5.38
2023-12-22T00:09:38.374Z,5.42
2023-12-22T00:10:38.388Z,5.39
2023-12-22T00:11:38.341Z,5.39
2023-12-22T00:12:38.330Z,5.38
2023-12-22T00:13:38.344Z,5.36
2023-12-22T00:14:38.314Z,5.31
2023-12-22T00:15:38.312Z,5.28
2023-12-22T00:16:38.316Z,5.24
2023-12-22T00:17:38.284Z,5.20
2023-12-22T00:18:44.330Z,5.15
2023-12-22T00:19:38.355Z,5.17
2023-12-22T00:20:38.273Z,5.20
2023-12-22T00:21:38.265Z,5.13
2023-12-22T00:22:38.293Z,5.10
2023-12-22T00:23:38.247Z,5.13
2023-12-22T00:24:38.257Z,5.07
2023-12-22T00:25:38.276Z,5.02
2023-12-22T00:26:38.225Z,5.00
2023-12-22T00:27:38.209Z,5.00
2023-12-22T00:28:38.230Z,5.02
2023-12-22T00:29:38.205Z,5.03
2023-12-22T00:30:38.142Z,5.03
2023-12-22T00:31:38.182Z,5.04
2023-12-22T00:32:38.179Z,5.07
2023-12-22T00:33:38.138Z,5.09
2023-12-22T00:34:38.121Z,5.09
2023-12-22T00:35:38.100Z,5.15
2023-12-22T00:36:38.098Z,5.13
2023-12-22T00:37:38.112Z,5.10
2023-12-22T00:38:38.075Z,5.10
2023-12-22T00:39:38.080Z,5.10
2023-12-22T00:40:38.112Z,5.12
2023-12-22T00:41:38.130Z,5.13
2023-12-22T00:42:38.063Z,5.15
2023-12-22T00:43:38.093Z,5.12
2023-12-22T00:44:38.007Z,5.10
2023-12-22T00:45:38.012Z,5.12
2023-12-22T00:46:38.027Z,5.15
2023-12-22T00:47:38.028Z,5.20
2023-12-22T00:48:38.021Z,5.18
2023-12-22T00:49:38.047Z,5.15
2023-12-22T00:50:38.020Z,5.15
2023-12-22T00:51:37.964Z,5.18
2023-12-22T00:52:38.008Z,5.20
2023-12-22T00:53:37.927Z,5.22
2023-12-22T00:54:37.911Z,5.24
2023-12-22T00:55:37.981Z,5.24
2023-12-22T00:56:37.913Z,5.24
2023-12-22T00:57:37.889Z,5.24
2023-12-22T00:58:37.942Z,5.28
2023-12-22T00:59:37.885Z,5.27
2023-12-22T01:00:37.898Z,5.31
2023-12-22T01:01:37.976Z,5.33
2023-12-22T01:02:37.848Z,5.35
2023-12-22T01:03:37.907Z,5.31
2023-12-22T01:04:37.878Z,5.33
2023-12-22T01:05:37.919Z,5.31
2023-12-22T01:06:37.860Z,5.28
2023-12-22T01:07:37.890Z,5.25
2023-12-22T01:08:37.779Z,5.18
2023-12-22T01:09:37.780Z,5.18
2023-12-22T01:10:37.780Z,5.12
2023-12-22T01:11:37.790Z,5.12
2023-12-22T01:12:37.754Z,5.17
2023-12-22T01:13:37.753Z,5.18
2023-12-22T01:14:37.723Z,5.17
2023-12-22T01:15:37.730Z,5.12
2023-12-22T01:16:37.798Z,5.17
2023-12-22T01:17:37.784Z,5.13
2023-12-22T01:18:37.707Z,5.06
2023-12-22T01:19:37.687Z,5.03
2023-12-22T01:20:37.650Z,5.04
2023-12-22T01:21:37.722Z,5.00
2023-12-22T01:22:37.688Z,4.97
2023-12-22T01:23:37.679Z,4.94
2023-12-22T01:24:37.628Z,4.91
2023-12-22T01:25:37.677Z,4.84
2023-12-22T01:26:37.616Z,4.91
2023-12-22T01:27:37.594Z,4.92
2023-12-22T01:28:37.617Z,5.00
2023-12-22T01:29:37.586Z,5.00
2023-12-22T01:30:37.638Z,5.03
2023-12-22T01:31:37.589Z,5.02
2023-12-22T01:32:37.566Z,5.03
2023-12-22T01:33:37.565Z,5.00
2023-12-22T01:34:37.555Z,5.00
2023-12-22T01:35:37.512Z,5.03
2023-12-22T01:36:37.509Z,5.02
2023-12-22T01:37:37.517Z,4.97
2023-12-22T01:38:37.493Z,5.03
2023-12-22T01:39:37.489Z,5.00
2023-12-22T01:40:37.568Z,4.99
2023-12-22T01:41:37.488Z,5.00
2023-12-22T01:42:37.450Z,5.04
2023-12-22T01:43:37.469Z,5.09
2023-12-22T01:44:37.415Z,5.10
2023-12-22T01:45:37.430Z,5.07
2023-12-22T01:46:37.468Z,5.10
2023-12-22T01:47:37.416Z,5.13
2023-12-22T01:48:37.494Z,5.13
2023-12-22T01:49:37.407Z,5.12
2023-12-22T01:50:37.353Z,5.15
2023-12-22T01:51:37.402Z,5.07
2023-12-22T01:52:37.378Z,5.09
2023-12-22T01:53:39.769Z,5.02
2023-12-22T01:54:37.311Z,5.00
2023-12-22T01:55:37.336Z,5.02
2023-12-22T01:56:37.322Z,5.02
2023-12-22T01:57:37.306Z,4.97
2023-12-22T01:58:37.322Z,5.00
2023-12-22T01:59:37.312Z,5.00
2023-12-22T02:00:37.272Z,4.99
2023-12-22T02:01:37.320Z,4.99
2023-12-22T02:02:37.253Z,5.00
2023-12-22T02:03:37.259Z,5.02
2023-12-22T02:04:37.278Z,4.96
2023-12-22T02:05:37.246Z,4.96
2023-12-22T02:06:37.224Z,4.94
2023-12-22T02:07:37.205Z,4.96
2023-12-22T02:08:37.177Z,4.99
2023-12-22T02:09:37.173Z,4.99
2023-12-22T02:10:37.216Z,5.00
2023-12-22T02:11:37.221Z,5.04
2023-12-22T02:12:37.149Z,5.03
2023-12-22T02:13:37.158Z,5.06
2023-12-22T02:14:38.936Z,5.04
2023-12-22T02:15:37.127Z,4.99
2023-12-22T02:16:37.119Z,5.02
2023-12-22T02:17:37.127Z,4.94
2023-12-22T02:18:37.244Z,4.96
2023-12-22T02:19:37.114Z,4.92
2023-12-22T02:20:37.081Z,4.96
2023-12-22T02:21:37.065Z,4.97
2023-12-22T02:22:37.118Z,4.94
2023-12-22T02:23:37.036Z,4.89
2023-12-22T02:24:37.022Z,4.91
2023-12-22T02:25:37.067Z,4.88
2023-12-22T02:26:37.044Z,4.92
2023-12-22T02:27:37.015Z,4.85
2023-12-22T02:28:37.074Z,4.84
2023-12-22T02:29:36.994Z,4.75
2023-12-22T02:30:36.997Z,4.72
2023-12-22T02:31:37.046Z,4.77
2023-12-22T02:32:36.978Z,4.78
2023-12-22T02:33:36.939Z,4.77
2023-12-22T02:34:37.021Z,4.72
2023-12-22T02:35:36.977Z,4.72
2023-12-22T02:36:36.908Z,4.69
2023-12-22T02:37:36.976Z,4.72
2023-12-22T02:38:36.906Z,4.69
2023-12-22T02:39:36.888Z,4.70
2023-12-22T02:40:37.187Z,4.72
2023-12-22T02:41:36.874Z,4.69
2023-12-22T02:42:36.871Z,4.70
2023-12-22T02:43:36.884Z,4.78
2023-12-22T02:44:36.820Z,4.75
2023-12-22T02:45:36.902Z,4.72
2023-12-22T02:46:36.824Z,4.72
2023-12-22T02:47:36.867Z,4.69
2023-12-22T02:48:36.826Z,4.72
2023-12-22T02:49:36.796Z,4.72
2023-12-22T02:50:36.765Z,4.67
2023-12-22T02:51:36.754Z,4.67
2023-12-22T02:52:36.784Z,4.66
2023-12-22T02:53:36.747Z,4.65
2023-12-22T02:54:36.726Z,4.70
2023-12-22T02:55:36.775Z,4.67
2023-12-22T02:56:36.741Z,4.59
2023-12-22T02:57:36.743Z,4.58
2023-12-22T02:58:36.785Z,4.55
2023-12-22T02:59:36.736Z,4.55
2023-12-22T03:00:36.730Z,4.55
2023-12-22T03:01:36.723Z,4.65
2023-12-22T03:02:36.677Z,4.66
2023-12-22T03:03:36.684Z,4.67
2023-12-22T03:04:36.681Z,4.65
2023-12-22T03:05:36.687Z,4.66
2023-12-22T03:06:36.624Z,4.62
2023-12-22T03:07:36.649Z,4.63
2023-12-22T03:08:36.582Z,4.62
2023-12-22T03:09:39.334Z,4.58
2023-12-22T03:10:36.608Z,4.55
2023-12-22T03:11:36.577Z,4.59
2023-12-22T03:12:36.570Z,4.60
2023-12-22T03:13:36.630Z,4.55
2023-12-22T03:14:36.515Z,4.55
2023-12-22T03:15:36.540Z,4.50
2023-12-22T03:16:36.571Z,4.47
2023-12-22T03:17:36.521Z,4.45
2023-12-22T03:18:36.579Z,4.45
2023-12-22T03:19:36.512Z,4.45
2023-12-22T03:20:36.476Z,4.47
2023-12-22T03:21:36.460Z,4.41
2023-12-22T03:22:36.473Z,4.44
2023-12-22T03:23:36.443Z,4.41
2023-12-22T03:24:36.447Z,4.41
2023-12-22T03:25:36.462Z,4.42
2023-12-22T03:26:36.466Z,4.45
2023-12-22T03:27:36.422Z,4.44
2023-12-22T03:28:36.482Z,4.47
2023-12-22T03:29:36.377Z,4.45
2023-12-22T03:30:36.408Z,4.45
2023-12-22T03:31:36.413Z,4.54
2023-12-22T03:32:36.351Z,4.58
2023-12-22T03:33:36.389Z,4.58
2023-12-22T03:34:36.342Z,4.59
2023-12-22T03:35:36.336Z,4.54
2023-12-22T03:36:36.337Z,4.60
2023-12-22T03:37:36.366Z,4.52
2023-12-22T03:38:36.344Z,4.52
2023-12-22T03:39:36.283Z,4.55
2023-12-22T03:40:36.305Z,4.55
2023-12-22T03:41:36.274Z,4.52
2023-12-22T03:42:36.279Z,4.52
2023-12-22T03:43:36.289Z,4.52
2023-12-22T03:44:37.358Z,4.47
2023-12-22T03:45:36.213Z,4.51
2023-12-22T03:46:36.253Z,4.50
2023-12-22T03:47:36.270Z,4.44
2023-12-22T03:48:36.200Z,4.42
2023-12-22T03:49:36.221Z,4.44
2023-12-22T03:50:36.153Z,4.40
2023-12-22T03:51:36.163Z,4.41
2023-12-22T03:52:36.178Z,4.42
2023-12-22T03:53:36.160Z,4.44
2023-12-22T03:54:36.131Z,4.42
2023-12-22T03:55:36.149Z,4.42
2023-12-22T03:56:36.095Z,4.45
2023-12-22T03:57:36.139Z,4.40
2023-12-22T03:58:36.133Z,4.41
2023-12-22T03:59:36.105Z,4.42
2023-12-22T04:00:36.057Z,4.41
2023-12-22T04:01:36.142Z,4.42
2023-12-22T04:02:36.638Z,4.36
2023-12-22T04:03:36.091Z,4.34
2023-12-22T04:04:36.056Z,4.33
2023-12-22T04:05:36.054Z,4.33
2023-12-22T04:06:36.019Z,4.36
2023-12-22T04:07:36.058Z,4.34
2023-12-22T04:08:36.018Z,4.34
2023-12-22T04:09:35.977Z,4.37
2023-12-22T04:10:36.106Z,4.37
2023-12-22T04:11:38.980Z,4.40
2023-12-22T04:12:35.953Z,4.40
2023-12-22T04:13:35.988Z,4.37
2023-12-22T04:14:35.918Z,4.40
2023-12-22T04:15:35.943Z,4.40
2023-12-22T04:16:35.940Z,4.34
2023-12-22T04:17:35.934Z,4.37
2023-12-22T04:18:35.984Z,4.40
2023-12-22T04:19:36.037Z,4.42
2023-12-22T04:20:35.947Z,4.42
2023-12-22T04:21:35.857Z,4.45
2023-12-22T04:22:35.880Z,4.47
2023-12-22T04:23:36.340Z,4.48
2023-12-22T04:24:35.808Z,4.42
2023-12-22T04:25:36.414Z,4.45
2023-12-22T04:26:35.831Z,4.44
2023-12-22T04:27:35.830Z,4.45
2023-12-22T04:28:35.834Z,4.41
2023-12-22T04:29:35.783Z,4.40
2023-12-22T04:30:35.763Z,4.34
2023-12-22T04:31:35.786Z,4.32
2023-12-22T04:32:35.755Z,4.30
2023-12-22T04:33:35.736Z,4.29
2023-12-22T04:34:35.724Z,4.23
2023-12-22T04:35:35.746Z,4.26
2023-12-22T04:36:35.694Z,4.22
2023-12-22T04:37:35.724Z,4.22
2023-12-22T04:38:35.695Z,4.20
2023-12-22T04:39:35.713Z,4.22
2023-12-22T04:40:35.667Z,4.16
2023-12-22T04:41:35.649Z,4.18
2023-12-22T04:42:35.664Z,4.23
2023-12-22T04:43:35.679Z,4.20
2023-12-22T04:44:35.617Z,4.24
2023-12-22T04:45:35.623Z,4.24
2023-12-22T04:46:35.706Z,4.23
2023-12-22T04:47:35.729Z,4.15
2023-12-22T04:48:35.666Z,4.14
2023-12-22T04:49:35.611Z,4.14
2023-12-22T04:50:35.552Z,4.09
2023-12-22T04:51:35.578Z,4.12
2023-12-22T04:52:36.251Z,4.09
2023-12-22T04:53:35.631Z,4.09
2023-12-22T04:54:35.508Z,4.06
2023-12-22T04:55:36.159Z,4.06
2023-12-22T04:56:35.493Z,4.08
2023-12-22T04:57:35.526Z,4.11
2023-12-22T04:58:35.499Z,4.09
2023-12-22T04:59:35.468Z,4.15
2023-12-22T05:00:35.528Z,4.22
2023-12-22T05:01:35.491Z,4.20
2023-12-22T05:02:35.473Z,4.20
2023-12-22T05:03:35.538Z,4.22
2023-12-22T05:04:35.430Z,4.22
2023-12-22T05:05:35.449Z,4.23
2023-12-22T05:06:35.385Z,4.16
2023-12-22T05:07:36.041Z,4.23
2023-12-22T05:08:35.380Z,4.22
2023-12-22T05:09:35.370Z,4.22
2023-12-22T05:10:35.423Z,4.20
2023-12-22T05:11:35.369Z,4.12
2023-12-22T05:12:35.355Z,4.06
2023-12-22T05:13:35.386Z,4.06
2023-12-22T05:14:35.312Z,3.98
2023-12-22T05:15:35.322Z,3.88
2023-12-22T05:16:35.403Z,3.87
2023-12-22T05:17:35.330Z,3.88
2023-12-22T05:18:35.339Z,3.84
2023-12-22T05:19:35.306Z,3.83
2023-12-22T05:20:35.256Z,3.76
2023-12-22T05:21:35.252Z,3.69
2023-12-22T05:22:37.023Z,3.69
2023-12-22T05:23:35.229Z,3.62
2023-12-22T05:24:35.252Z,3.69
2023-12-22T05:25:35.243Z,3.70
2023-12-22T05:26:35.198Z,3.62
2023-12-22T05:27:35.208Z,3.57
2023-12-22T05:28:35.241Z,3.47
2023-12-22T05:29:35.180Z,3.50
2023-12-22T05:30:35.140Z,3.50
2023-12-22T05:31:35.158Z,3.50
2023-12-22T05:32:36.284Z,3.47
2023-12-22T05:33:35.160Z,3.45
2023-12-22T05:34:35.194Z,3.51
2023-12-22T05:35:37.729Z,3.50
2023-12-22T05:36:35.084Z,3.50
2023-12-22T05:37:35.130Z,3.54
2023-12-22T05:38:35.071Z,3.55
2023-12-22T05:39:35.067Z,3.50
2023-12-22T05:40:35.060Z,3.52
2023-12-22T05:41:35.051Z,3.54
2023-12-22T05:42:35.075Z,3.61
2023-12-22T05:43:35.043Z,3.65
2023-12-22T05:44:35.014Z,3.65
2023-12-22T05:45:35.022Z,3.61
2023-12-22T05:46:35.060Z,3.61
2023-12-22T05:47:35.084Z,3.60
2023-12-22T05:48:35.053Z,3.57
2023-12-22T05:49:35.069Z,3.52
2023-12-22T05:50:34.976Z,3.54
2023-12-22T05:51:34.954Z,3.58
2023-12-22T05:52:36.106Z,3.66
2023-12-22T05:53:34.921Z,3.66
2023-12-22T05:54:34.924Z,3.70
2023-12-22T05:55:34.961Z,3.68
2023-12-22T05:56:34.924Z,3.61
2023-12-22T05:57:34.928Z,3.61
2023-12-22T05:58:34.889Z,3.61
2023-12-22T05:59:34.864Z,3.65
2023-12-22T06:00:34.853Z,3.61
2023-12-22T06:01:34.848Z,3.62
2023-12-22T06:02:34.847Z,3.61
2023-12-22T06:03:34.865Z,3.60
2023-12-22T06:04:34.848Z,3.57
2023-12-22T06:05:34.922Z,3.55
2023-12-22T06:06:34.822Z,3.52
2023-12-22T06:07:34.833Z,3.55
2023-12-22T06:08:34.766Z,3.51
2023-12-22T06:09:34.774Z,3.51
2023-12-22T06:10:34.804Z,3.52
2023-12-22T06:11:34.775Z,3.54
2023-12-22T06:12:34.742Z,3.52
2023-12-22T06:13:34.765Z,3.60
2023-12-22T06:14:34.725Z,3.60
2023-12-22T06:15:34.721Z,3.60
2023-12-22T06:16:34.748Z,3.60
2023-12-22T06:17:34.709Z,3.65
2023-12-22T06:18:34.696Z,3.61
2023-12-22T06:19:41.217Z,3.66
2023-12-22T06:20:34.662Z,3.69
2023-12-22T06:21:34.642Z,3.68
2023-12-22T06:22:34.722Z,3.66
2023-12-22T06:23:34.790Z,3.70
2023-12-22T06:24:34.620Z,3.79
2023-12-22T06:25:34.637Z,3.76
2023-12-22T06:26:34.575Z,3.75
2023-12-22T06:27:34.612Z,3.80
2023-12-22T06:28:34.599Z,3.84
2023-12-22T06:29:34.566Z,3.70
2023-12-22T06:30:34.552Z,3.72
2023-12-22T06:31:34.578Z,3.76
2023-12-22T06:32:34.572Z,3.75
2023-12-22T06:33:34.630Z,3.73
2023-12-22T06:34:34.543Z,3.68
2023-12-22T06:35:35.208Z,3.66
2023-12-22T06:36:34.484Z,3.68
2023-12-22T06:37:34.541Z,3.69
2023-12-22T06:38:34.476Z,3.72
2023-12-22T06:39:34.470Z,3.73
2023-12-22T06:40:34.467Z,3.76
2023-12-22T06:41:34.563Z,3.73
2023-12-22T06:42:34.445Z,3.73
2023-12-22T06:43:34.488Z,3.75
2023-12-22T06:44:34.401Z,3.75
2023-12-22T06:45:34.404Z,3.69
2023-12-22T06:46:34.451Z,3.70
2023-12-22T06:47:34.511Z,3.73
2023-12-22T06:48:34.566Z,3.72
2023-12-22T06:49:34.552Z,3.75
2023-12-22T06:50:34.377Z,3.80
2023-12-22T06:51:34.349Z,3.83
2023-12-22T06:52:34.379Z,3.87
2023-12-22T06:53:34.320Z,3.84
2023-12-22T06:54:34.288Z,3.84
2023-12-22T06:55:34.303Z,3.88
2023-12-22T06:56:34.317Z,3.86
2023-12-22T06:57:35.679Z,3.83
2023-12-22T06:58:34.267Z,3.79
2023-12-22T06:59:34.574Z,3.76
2023-12-22T07:00:34.249Z,3.72
2023-12-22T07:01:34.310Z,3.76
2023-12-22T07:02:35.690Z,3.75
2023-12-22T07:03:34.302Z,3.75
2023-12-22T07:04:35.279Z,3.76
2023-12-22T07:05:34.320Z,3.75
2023-12-22T07:06:34.191Z,3.65
2023-12-22T07:07:36.404Z,3.60
2023-12-22T07:08:34.148Z,3.57
2023-12-22T07:09:34.184Z,3.40
2023-12-22T07:10:34.154Z,3.42
2023-12-22T07:11:37.974Z,3.36
2023-12-22T07:12:34.158Z,3.42
2023-12-22T07:13:34.288Z,3.43
2023-12-22T07:14:35.570Z,3.45
2023-12-22T07:15:34.116Z,3.47
2023-12-22T07:16:34.114Z,3.47
2023-12-22T07:17:34.266Z,3.48
2023-12-22T07:18:34.134Z,3.51
2023-12-22T07:19:34.126Z,3.57
2023-12-22T07:20:34.053Z,3.57
2023-12-22T07:21:34.056Z,3.55
2023-12-22T07:22:34.095Z,3.55
2023-12-22T07:23:34.027Z,3.60
2023-12-22T07:24:34.011Z,3.60
2023-12-22T07:25:34.049Z,3.65
2023-12-22T07:26:33.985Z,3.69
2023-12-22T07:27:33.987Z,3.69
2023-12-22T07:28:34.308Z,3.70
2023-12-22T07:29:33.968Z,3.68
2023-12-22T07:30:35.572Z,3.61
2023-12-22T07:31:33.995Z,3.60
2023-12-22T07:32:34.043Z,3.55
2023-12-22T07:33:33.972Z,3.55
2023-12-22T07:34:36.925Z,3.51
2023-12-22T07:35:33.953Z,3.51
2023-12-22T07:36:33.873Z,3.54
2023-12-22T07:37:33.964Z,3.52
2023-12-22T07:38:33.870Z,3.55
2023-12-22T07:39:33.899Z,3.58
2023-12-22T07:40:33.980Z,3.65
2023-12-22T07:41:33.938Z,3.69
2023-12-22T07:42:34.295Z,3.68
2023-12-22T07:43:34.690Z,3.65
2023-12-22T07:44:34.153Z,3.66
2023-12-22T07:45:33.815Z,3.62
2023-12-22T07:46:33.808Z,3.60
2023-12-22T07:47:34.083Z,3.65
2023-12-22T07:48:33.997Z,3.72
2023-12-22T07:49:33.975Z,3.70
2023-12-22T07:50:34.323Z,3.70
2023-12-22T07:51:33.739Z,3.70
2023-12-22T07:52:33.834Z,3.69
2023-12-22T07:53:33.731Z,3.72
2023-12-22T07:54:33.717Z,3.79
2023-12-22T07:55:34.936Z,3.84
2023-12-22T07:56:33.693Z,3.84
2023-12-22T07:57:33.703Z,3.84
2023-12-22T07:58:33.696Z,3.86
2023-12-22T07:59:33.746Z,3.88
2023-12-22T08:00:33.681Z,3.88
2023-12-22T08:01:33.647Z,3.88
2023-12-22T08:02:33.644Z,3.93
2023-12-22T08:03:33.649Z,3.91
2023-12-22T08:04:33.655Z,3.90
2023-12-22T08:05:33.596Z,3.93
2023-12-22T08:06:33.683Z,3.91
2023-12-22T08:07:33.644Z,3.97
2023-12-22T08:08:33.558Z,3.91
2023-12-22T08:09:33.628Z,3.94
2023-12-22T08:10:33.580Z,3.96
2023-12-22T08:11:33.531Z,3.96
2023-12-22T08:12:33.577Z,3.97
2023-12-22T08:13:33.559Z,3.97
2023-12-22T08:14:33.513Z,3.87
2023-12-22T08:15:36.979Z,3.88
2023-12-22T08:16:33.489Z,3.88
2023-12-22T08:17:33.559Z,3.84
2023-12-22T08:18:34.135Z,3.86
2023-12-22T08:19:33.930Z,3.86
2023-12-22T08:20:36.982Z,3.91
2023-12-22T08:21:39.681Z,3.86
2023-12-22T08:22:33.996Z,3.80
2023-12-22T08:23:34.021Z,3.88
2023-12-22T08:24:33.457Z,3.79
2023-12-22T08:25:33.625Z,3.83
2023-12-22T08:26:33.475Z,3.75
2023-12-22T08:27:33.409Z,3.80
2023-12-22T08:28:33.416Z,3.84
2023-12-22T08:29:33.969Z,3.90
2023-12-22T08:30:33.348Z,3.86
2023-12-22T08:31:33.359Z,3.90
2023-12-22T08:32:33.341Z,3.93
2023-12-22T08:33:33.428Z,3.88
2023-12-22T08:34:33.326Z,3.91
2023-12-22T08:35:33.311Z,3.90
2023-12-22T08:36:33.292Z,3.87
2023-12-22T08:37:33.384Z,3.88
2023-12-22T08:38:33.588Z,3.88
2023-12-22T08:39:33.465Z,3.87
2023-12-22T08:40:33.586Z,3.91
2023-12-22T08:41:33.278Z,4.00
2023-12-22T08:42:33.251Z,4.05
2023-12-22T08:43:33.263Z,4.06
2023-12-22T08:44:33.235Z,4.02
2023-12-22T08:45:33.192Z,4.05
2023-12-22T08:46:33.211Z,4.08
2023-12-22T08:47:33.215Z,4.06
2023-12-22T08:48:33.205Z,4.06
2023-12-22T08:49:33.305Z,4.00
2023-12-22T08:50:33.138Z,3.98
2023-12-22T08:51:33.158Z,4.00
2023-12-22T08:52:33.666Z,4.05
2023-12-22T08:53:33.109Z,4.05
2023-12-22T08:54:33.077Z,4.11
2023-12-22T08:55:33.102Z,4.04
2023-12-22T08:56:33.064Z,4.06
2023-12-22T08:57:33.315Z,4.15
2023-12-22T08:58:33.081Z,4.14
2023-12-22T08:59:33.108Z,4.15
2023-12-22T09:00:33.028Z,4.12
2023-12-22T09:01:33.155Z,4.09
2023-12-22T09:02:33.091Z,4.14
2023-12-22T09:03:33.011Z,4.14
2023-12-22T09:04:33.051Z,4.22
2023-12-22T09:05:33.172Z,4.18
2023-12-22T09:06:32.976Z,4.20
2023-12-22T09:07:33.053Z,4.22
2023-12-22T09:08:32.945Z,4.24
2023-12-22T09:09:32.962Z,4.26
2023-12-22T09:10:33.009Z,4.32
2023-12-22T09:11:32.932Z,4.37
2023-12-22T09:12:32.936Z,4.33
2023-12-22T09:13:32.948Z,4.36
2023-12-22T09:14:32.917Z,4.41
2023-12-22T09:15:32.893Z,4.40
2023-12-22T09:16:32.931Z,4.45
2023-12-22T09:17:32.919Z,4.36
2023-12-22T09:18:32.967Z,4.33
2023-12-22T09:19:32.956Z,4.34
2023-12-22T09:20:32.830Z,4.42
2023-12-22T09:21:32.871Z,4.42
2023-12-22T09:22:32.910Z,4.41
2023-12-22T09:23:32.963Z,4.42
2023-12-22T09:24:33.935Z,4.36
2023-12-22T09:25:32.860Z,4.37
2023-12-22T09:26:32.775Z,4.40
2023-12-22T09:27:32.836Z,4.44
2023-12-22T09:28:32.825Z,4.42
2023-12-22T09:29:32.781Z,4.47
2023-12-22T09:30:32.754Z,4.45
2023-12-22T09:31:32.770Z,4.42
2023-12-22T09:32:32.872Z,4.42
2023-12-22T09:33:32.759Z,4.44
2023-12-22T09:34:32.711Z,4.45
2023-12-22T09:35:32.709Z,4.41
2023-12-22T09:36:32.701Z,4.41
2023-12-22T09:37:32.697Z,4.40
2023-12-22T09:38:32.657Z,4.44
2023-12-22T09:39:32.670Z,4.41
2023-12-22T09:40:32.640Z,4.41
2023-12-22T09:41:32.631Z,4.45
2023-12-22T09:42:32.647Z,4.47
2023-12-22T09:43:32.674Z,4.47
2023-12-22T09:44:32.591Z,4.54
2023-12-22T09:45:32.587Z,4.55
2023-12-22T09:46:32.596Z,4.62
2023-12-22T09:47:33.737Z,4.67
2023-12-22T09:48:32.556Z,4.75
2023-12-22T09:49:32.658Z,4.77
2023-12-22T09:50:32.535Z,4.75
2023-12-22T09:51:32.529Z,4.73
2023-12-22T09:52:32.546Z,4.73
2023-12-22T09:53:32.516Z,4.62
2023-12-22T09:54:32.484Z,4.65
2023-12-22T09:55:32.522Z,4.70
2023-12-22T09:56:32.495Z,4.65
2023-12-22T09:57:32.484Z,4.60
2023-12-22T09:58:32.515Z,4.63
2023-12-22T09:59:32.486Z,4.66
2023-12-22T10:00:32.461Z,4.70
2023-12-22T10:01:32.529Z,4.75
2023-12-22T10:02:32.412Z,4.82
2023-12-22T10:03:32.409Z,4.75
2023-12-22T10:04:32.508Z,4.70
2023-12-22T10:05:32.479Z,4.75
2023-12-22T10:06:32.376Z,4.82
2023-12-22T10:07:32.419Z,4.82
2023-12-22T10:08:32.350Z,4.82
2023-12-22T10:09:32.370Z,4.77
2023-12-22T10:10:32.385Z,4.77
2023-12-22T10:11:32.314Z,4.67
2023-12-22T10:12:32.316Z,4.65
2023-12-22T10:13:32.339Z,4.58
2023-12-22T10:14:32.280Z,4.62
2023-12-22T10:15:32.293Z,4.59
2023-12-22T10:16:32.319Z,4.60
2023-12-22T10:17:32.314Z,4.62
2023-12-22T10:18:32.300Z,4.67
2023-12-22T10:19:32.249Z,4.72
2023-12-22T10:20:32.228Z,4.69
2023-12-22T10:21:33.693Z,4.69
2023-12-22T10:22:32.247Z,4.72
2023-12-22T10:23:32.198Z,4.77
2023-12-22T10:24:32.180Z,4.75
2023-12-22T10:25:32.232Z,4.80
2023-12-22T10:26:32.199Z,4.78
2023-12-22T10:27:32.164Z,4.77
2023-12-22T10:28:32.160Z,4.91
2023-12-22T10:29:32.141Z,5.02
2023-12-22T10:30:32.113Z,5.02
2023-12-22T10:31:32.145Z,5.04
2023-12-22T10:32:32.172Z,4.99
2023-12-22T10:33:32.200Z,4.97
2023-12-22T10:34:32.110Z,4.94
2023-12-22T10:35:32.095Z,4.94
2023-12-22T10:36:32.063Z,4.97
2023-12-22T10:37:32.082Z,4.94
2023-12-22T10:38:32.029Z,4.99
2023-12-22T10:39:32.039Z,5.00
2023-12-22T10:40:32.121Z,5.02
2023-12-22T10:41:32.026Z,5.00
2023-12-22T10:42:32.005Z,4.97
2023-12-22T10:43:32.053Z,4.92
2023-12-22T10:44:31.993Z,4.94
2023-12-22T10:45:32.294Z,4.97
2023-12-22T10:46:33.013Z,4.96
2023-12-22T10:47:32.777Z,4.99
2023-12-22T10:48:32.063Z,5.02
2023-12-22T10:49:31.965Z,5.06
2023-12-22T10:50:31.934Z,5.09
2023-12-22T10:51:31.918Z,5.09
2023-12-22T10:52:31.991Z,5.03
2023-12-22T10:53:31.879Z,5.12
2023-12-22T10:54:31.866Z,5.09
2023-12-22T10:55:31.918Z,5.15
2023-12-22T10:56:31.863Z,5.15
2023-12-22T10:57:31.862Z,5.15
2023-12-22T10:58:31.876Z,5.17
2023-12-22T10:59:32.440Z,5.18
2023-12-22T11:00:32.423Z,5.22
2023-12-22T11:01:31.848Z,5.24
2023-12-22T11:02:31.972Z,5.21
2023-12-22T11:03:31.855Z,5.24
2023-12-22T11:04:31.795Z,5.21
2023-12-22T11:05:31.770Z,5.18
2023-12-22T11:06:31.764Z,5.15
2023-12-22T11:07:31.771Z,5.13
2023-12-22T11:08:31.759Z,5.10
2023-12-22T11:09:31.745Z,5.10
2023-12-22T11:10:31.754Z,5.13
2023-12-22T11:11:31.719Z,5.18
2023-12-22T11:12:31.711Z,5.20
2023-12-22T11:13:32.102Z,5.17
2023-12-22T11:14:31.677Z,5.18
2023-12-22T11:15:31.678Z,5.18
2023-12-22T11:16:31.693Z,5.15
2023-12-22T11:17:31.653Z,5.10
2023-12-22T11:18:31.765Z,5.09
2023-12-22T11:19:31.769Z,5.04
2023-12-22T11:20:31.632Z,5.10
2023-12-22T11:21:31.600Z,5.10
2023-12-22T11:22:31.609Z,5.10
2023-12-22T11:23:31.606Z,5.09
2023-12-22T11:24:31.568Z,5.06
2023-12-22T11:25:31.625Z,5.03
2023-12-22T11:26:31.546Z,5.00
2023-12-22T11:27:31.553Z,5.00
2023-12-22T11:28:31.601Z,5.03
2023-12-22T11:29:31.529Z,5.13
2023-12-22T11:30:31.518Z,5.04
2023-12-22T11:31:31.561Z,5.03
2023-12-22T11:32:31.554Z,5.03
2023-12-22T11:33:31.530Z,5.02
2023-12-22T11:34:31.545Z,5.04
2023-12-22T11:35:33.465Z,5.09
2023-12-22T11:36:31.447Z,5.10
2023-12-22T11:37:31.465Z,5.18
2023-12-22T11:38:31.437Z,5.15
2023-12-22T11:39:31.485Z,5.15
2023-12-22T11:40:31.460Z,5.17
2023-12-22T11:41:31.390Z,5.15
2023-12-22T11:42:31.397Z,5.17
2023-12-22T11:43:31.993Z,5.17
2023-12-22T11:44:31.362Z,5.20
2023-12-22T11:45:31.379Z,5.18
2023-12-22T11:46:31.410Z,5.15
2023-12-22T11:47:31.387Z,5.15
2023-12-22T11:48:31.459Z,5.17
2023-12-22T11:49:31.338Z,5.13
2023-12-22T11:50:31.502Z,5.18
2023-12-22T11:51:31.298Z,5.18
2023-12-22T11:52:31.359Z,5.20
2023-12-22T11:53:31.344Z,5.25
2023-12-22T11:54:31.262Z,5.24
2023-12-22T11:55:31.287Z,5.30
2023-12-22T11:56:31.248Z,5.28
2023-12-22T11:57:31.238Z,5.27
2023-12-22T11:58:31.239Z,5.24
2023-12-22T11:59:31.244Z,5.22
2023-12-22T12:00:31.204Z,5.24
2023-12-22T12:01:31.303Z,5.25
2023-12-22T12:02:31.268Z,5.27
2023-12-22T12:03:31.179Z,5.31
2023-12-22T12:04:31.266Z,5.27
2023-12-22T12:05:31.223Z,5.31
2023-12-22T12:06:31.234Z,5.30
2023-12-22T12:07:31.154Z,5.35
2023-12-22T12:08:31.110Z,5.35
2023-12-22T12:09:31.143Z,5.36
2023-12-22T12:10:31.105Z,5.45
2023-12-22T12:11:31.106Z,5.46
2023-12-22T12:12:31.100Z,5.45
2023-12-22T12:13:31.119Z,5.39
2023-12-22T12:14:31.095Z,5.43
2023-12-22T12:15:31.075Z,5.42
2023-12-22T12:16:31.058Z,5.38
2023-12-22T12:17:31.106Z,5.40
2023-12-22T12:18:31.042Z,5.43
2023-12-22T12:19:31.198Z,5.42
2023-12-22T12:20:37.035Z,5.35
2023-12-22T12:21:30.997Z,5.36
2023-12-22T12:22:30.978Z,5.33
2023-12-22T12:23:30.986Z,5.42
2023-12-22T12:24:30.978Z,5.40
2023-12-22T12:25:35.836Z,5.36
2023-12-22T12:26:30.972Z,5.35
2023-12-22T12:27:30.962Z,5.36
2023-12-22T12:28:30.943Z,5.36
2023-12-22T12:29:30.960Z,5.43
2023-12-22T12:30:30.976Z,5.45
2023-12-22T12:31:30.927Z,5.48
2023-12-22T12:32:30.921Z,5.45
2023-12-22T12:33:30.999Z,5.40
2023-12-22T12:34:30.917Z,5.39
2023-12-22T12:35:31.091Z,5.31
2023-12-22T12:36:30.849Z,5.30
2023-12-22T12:37:30.917Z,5.35
2023-12-22T12:38:30.848Z,5.36
2023-12-22T12:39:30.858Z,5.35
2023-12-22T12:40:30.975Z,5.38
2023-12-22T12:41:30.817Z,5.30
2023-12-22T12:42:30.800Z,5.33
2023-12-22T12:43:30.786Z,5.40
2023-12-22T12:44:30.821Z,5.36
2023-12-22T12:45:30.837Z,5.30
2023-12-22T12:46:30.781Z,5.27
2023-12-22T12:47:30.973Z,5.25
2023-12-22T12:48:30.811Z,5.22
2023-12-22T12:49:30.860Z,5.25
2023-12-22T12:50:30.719Z,5.20
2023-12-22T12:51:30.687Z,5.20
2023-12-22T12:52:30.766Z,5.13
2023-12-22T12:53:30.660Z,5.07
2023-12-22T12:54:30.655Z,5.12
2023-12-22T12:55:30.906Z,5.10
2023-12-22T12:56:30.630Z,5.15
2023-12-22T12:57:30.676Z,5.17
2023-12-22T12:58:30.671Z,5.20
2023-12-22T12:59:30.607Z,5.20
2023-12-22T13:00:30.626Z,5.15
2023-12-22T13:01:33.938Z,5.15
2023-12-22T13:02:30.638Z,5.15
2023-12-22T13:03:30.641Z,5.13
2023-12-22T13:04:30.617Z,5.13
2023-12-22T13:05:30.620Z,5.13
2023-12-22T13:06:30.529Z,5.17
2023-12-22T13:07:30.638Z,5.17
2023-12-22T13:08:38.775Z,5.21
2023-12-22T13:09:30.526Z,5.18
2023-12-22T13:10:30.560Z,5.17
2023-12-22T13:11:30.503Z,5.15
2023-12-22T13:12:30.509Z,5.13
2023-12-22T13:13:30.476Z,5.18
2023-12-22T13:14:30.463Z,5.13
2023-12-22T13:15:30.445Z,5.13
2023-12-22T13:16:30.562Z,5.13
2023-12-22T13:17:30.484Z,5.13
2023-12-22T13:18:30.460Z,5.20